sensor_id;sensor_type;location;lat;lon;timestamp;pressure;altitude;pressure_sealevel;temperature;humidity
55656;BME280;41530;52.382;5.270;2022-11-20T00:01:09;101630.44;;;15.25;49.42
55656;BME280;41530;52.382;5.270;2022-11-20T00:03:36;101632.38;;;15.23;49.37
55656;BME280;41530;52.382;5.270;2022-11-20T00:06:07;101631.41;;;15.24;49.29
55656;BME280;41530;52.382;5.270;2022-11-20T00:08:34;101635.13;;;15.21;49.47
55656;BME280;41530;52.382;5.270;2022-11-20T00:11:07;101632.59;;;15.20;49.10
55656;BME280;41530;52.382;5.270;2022-11-20T00:13:41;101630.91;;;15.19;49.29
55656;BME280;41530;52.382;5.270;2022-11-20T00:16:10;101631.75;;;15.19;49.36
55656;BME280;41530;52.382;5.270;2022-11-20T00:18:37;101632.59;;;15.20;49.25
55656;BME280;41530;52.382;5.270;2022-11-20T00:21:10;101629.34;;;15.16;49.30
55656;BME280;41530;52.382;5.270;2022-11-20T00:23:37;101631.28;;;15.14;49.33
55656;BME280;41530;52.382;5.270;2022-11-20T00:26:06;101632.00;;;15.16;49.20
55656;BME280;41530;52.382;5.270;2022-11-20T00:28:34;101624.41;;;15.12;49.20
55656;BME280;41530;52.382;5.270;2022-11-20T00:31:02;101625.84;;;15.16;49.35
55656;BME280;41530;52.382;5.270;2022-11-20T00:33:30;101621.50;;;15.15;49.25
55656;BME280;41530;52.382;5.270;2022-11-20T00:36:05;101614.75;;;15.11;48.93
55656;BME280;41530;52.382;5.270;2022-11-20T00:38:32;101620.78;;;15.13;49.20
55656;BME280;41530;52.382;5.270;2022-11-20T00:41:03;101609.91;;;15.05;49.32
55656;BME280;41530;52.382;5.270;2022-11-20T00:43:30;101621.00;;;15.10;49.15
55656;BME280;41530;52.382;5.270;2022-11-20T00:46:01;101620.06;;;15.11;49.28
55656;BME280;41530;52.382;5.270;2022-11-20T00:48:29;101621.00;;;15.10;49.18
55656;BME280;41530;52.382;5.270;2022-11-20T00:50:56;101617.50;;;15.09;49.39
55656;BME280;41530;52.382;5.270;2022-11-20T00:53:23;101620.16;;;15.09;49.34
55656;BME280;41530;52.382;5.270;2022-11-20T00:55:57;101606.28;;;15.06;49.04
55656;BME280;41530;52.382;5.270;2022-11-20T00:58:31;101611.38;;;15.09;49.09
55656;BME280;41530;52.382;5.270;2022-11-20T01:01:00;101610.53;;;15.08;49.42
55656;BME280;41530;52.382;5.270;2022-11-20T01:03:31;101607.13;;;15.06;48.97
55656;BME280;41530;52.382;5.270;2022-11-20T01:06:14;101607.13;;;15.06;48.96
55656;BME280;41530;52.382;5.270;2022-11-20T01:08:42;101606.44;;;15.04;49.14
55656;BME280;41530;52.382;5.270;2022-11-20T01:11:11;101599.56;;;15.02;49.10
55656;BME280;41530;52.382;5.270;2022-11-20T01:13:40;101595.22;;;15.01;49.08
55656;BME280;41530;52.382;5.270;2022-11-20T01:18:48;101603.06;;;15.02;49.10
55656;BME280;41530;52.382;5.270;2022-11-20T01:21:39;101598.72;;;15.01;49.17
55656;BME280;41530;52.382;5.270;2022-11-20T01:24:07;101589.31;;;14.97;48.87
55656;BME280;41530;52.382;5.270;2022-11-20T01:26:36;101579.78;;;14.94;49.10
55656;BME280;41530;52.382;5.270;2022-11-20T01:29:05;101589.19;;;14.98;49.12
55656;BME280;41530;52.382;5.270;2022-11-20T01:31:34;101580.50;;;14.96;49.07
55656;BME280;41530;52.382;5.270;2022-11-20T01:34:07;101579.56;;;14.97;48.96
55656;BME280;41530;52.382;5.270;2022-11-20T01:36:35;101573.63;;;14.94;48.96
55656;BME280;41530;52.382;5.270;2022-11-20T01:39:05;101565.69;;;14.94;49.05
55656;BME280;41530;52.382;5.270;2022-11-20T01:41:33;101569.19;;;14.94;49.04
55656;BME280;41530;52.382;5.270;2022-11-20T01:44:21;101580.75;;;14.93;49.24
55656;BME280;41530;52.382;5.270;2022-11-20T01:47:04;101577.34;;;14.91;48.76
55656;BME280;41530;52.382;5.270;2022-11-20T01:49:36;101578.19;;;14.92;48.91
55656;BME280;41530;52.382;5.270;2022-11-20T01:52:07;101572.31;;;14.88;49.04
55656;BME280;41530;52.382;5.270;2022-11-20T01:55:02;101570.50;;;14.89;48.81
55656;BME280;41530;52.382;5.270;2022-11-20T01:57:31;101560.03;;;14.87;48.98
55656;BME280;41530;52.382;5.270;2022-11-20T02:00:07;101567.03;;;14.88;48.62
55656;BME280;41530;52.382;5.270;2022-11-20T02:02:35;101560.03;;;14.87;48.97
55656;BME280;41530;52.382;5.270;2022-11-20T02:05:16;101560.25;;;14.84;48.74
55656;BME280;41530;52.382;5.270;2022-11-20T02:07:46;101568.09;;;14.86;48.89
55656;BME280;41530;52.382;5.270;2022-11-20T02:10:13;101557.09;;;14.79;48.82
55656;BME280;41530;52.382;5.270;2022-11-20T02:12:39;101566.50;;;14.83;48.74
55656;BME280;41530;52.382;5.270;2022-11-20T02:15:24;101553.13;;;14.74;48.79
55656;BME280;41530;52.382;5.270;2022-11-20T02:17:55;101556.88;;;14.82;48.79
55656;BME280;41530;52.382;5.270;2022-11-20T02:20:22;101558.78;;;14.80;48.66
55656;BME280;41530;52.382;5.270;2022-11-20T02:22:59;101564.94;;;14.81;48.51
55656;BME280;41530;52.382;5.270;2022-11-20T02:25:28;101557.25;;;14.78;48.80
55656;BME280;41530;52.382;5.270;2022-11-20T02:27:57;101562.41;;;14.79;48.95
55656;BME280;41530;52.382;5.270;2022-11-20T02:30:23;101566.84;;;14.79;49.14
55656;BME280;41530;52.382;5.270;2022-11-20T02:32:50;101550.94;;;14.68;48.70
55656;BME280;41530;52.382;5.270;2022-11-20T02:37:48;101547.84;;;14.74;48.68
55656;BME280;41530;52.382;5.270;2022-11-20T02:40:16;101557.47;;;14.75;48.69
55656;BME280;41530;52.382;5.270;2022-11-20T02:42:43;101552.28;;;14.73;48.77
55656;BME280;41530;52.382;5.270;2022-11-20T02:45:11;101557.59;;;14.73;48.83
55656;BME280;41530;52.382;5.270;2022-11-20T02:47:38;101548.78;;;14.73;49.03
55656;BME280;41530;52.382;5.270;2022-11-20T02:50:05;101535.16;;;14.66;48.87
55656;BME280;41530;52.382;5.270;2022-11-20T02:52:32;101546.25;;;14.71;48.49
55656;BME280;41530;52.382;5.270;2022-11-20T02:54:59;101544.56;;;14.70;48.44
55656;BME280;41530;52.382;5.270;2022-11-20T02:57:26;101537.56;;;14.69;48.45
55656;BME280;41530;52.382;5.270;2022-11-20T02:59:53;101546.38;;;14.70;48.68
55656;BME280;41530;52.382;5.270;2022-11-20T03:02:21;101543.00;;;14.68;48.42
55656;BME280;41530;52.382;5.270;2022-11-20T03:04:47;101536.84;;;14.67;48.53
55656;BME280;41530;52.382;5.270;2022-11-20T03:07:14;101536.13;;;14.65;48.46
55656;BME280;41530;52.382;5.270;2022-11-20T03:09:40;101534.44;;;14.64;48.33
55656;BME280;41530;52.382;5.270;2022-11-20T03:12:07;101533.47;;;14.65;48.82
55656;BME280;41530;52.382;5.270;2022-11-20T03:14:34;101519.75;;;14.60;48.55
55656;BME280;41530;52.382;5.270;2022-11-20T03:17:01;101523.97;;;14.63;48.69
55656;BME280;41530;52.382;5.270;2022-11-20T03:19:27;101512.53;;;14.62;48.40
55656;BME280;41530;52.382;5.270;2022-11-20T03:21:54;101511.69;;;14.61;48.37
55656;BME280;41530;52.382;5.270;2022-11-20T03:24:21;101509.16;;;14.60;48.50
55656;BME280;41530;52.382;5.270;2022-11-20T03:26:47;101507.34;;;14.60;48.50
55656;BME280;41530;52.382;5.270;2022-11-20T03:29:15;101498.69;;;14.58;48.57
55656;BME280;41530;52.382;5.270;2022-11-20T03:31:41;101501.31;;;14.58;48.46
55656;BME280;41530;52.382;5.270;2022-11-20T03:34:10;101504.94;;;14.57;48.67
55656;BME280;41530;52.382;5.270;2022-11-20T03:36:41;101504.19;;;14.55;48.32
55656;BME280;41530;52.382;5.270;2022-11-20T03:39:11;101493.97;;;14.51;48.48
55656;BME280;41530;52.382;5.270;2022-11-20T03:41:40;101498.06;;;14.55;48.56
55656;BME280;41530;52.382;5.270;2022-11-20T03:44:09;101503.34;;;14.55;48.35
55656;BME280;41530;52.382;5.270;2022-11-20T03:46:36;101499.88;;;14.54;48.41
55656;BME280;41530;52.382;5.270;2022-11-20T03:49:03;101490.34;;;14.52;48.37
55656;BME280;41530;52.382;5.270;2022-11-20T03:51:32;101492.03;;;14.53;48.64
55656;BME280;41530;52.382;5.270;2022-11-20T03:54:02;101495.63;;;14.52;48.36
55656;BME280;41530;52.382;5.270;2022-11-20T03:56:31;101487.69;;;14.52;48.45
55656;BME280;41530;52.382;5.270;2022-11-20T03:58:58;101485.31;;;14.49;48.44
55656;BME280;41530;52.382;5.270;2022-11-20T04:01:30;101488.69;;;14.51;48.15
55656;BME280;41530;52.382;5.270;2022-11-20T04:03:58;101488.78;;;14.49;48.39
55656;BME280;41530;52.382;5.270;2022-11-20T04:06:27;101486.25;;;14.48;48.59
55656;BME280;41530;52.382;5.270;2022-11-20T04:08:56;101480.13;;;14.47;48.36
55656;BME280;41530;52.382;5.270;2022-11-20T04:11:25;101478.31;;;14.48;48.17
55656;BME280;41530;52.382;5.270;2022-11-20T04:13:54;101475.78;;;14.46;48.33
55656;BME280;41530;52.382;5.270;2022-11-20T04:16:23;101471.56;;;14.44;48.39
55656;BME280;41530;52.382;5.270;2022-11-20T04:18:58;101464.47;;;14.44;48.42
55656;BME280;41530;52.382;5.270;2022-11-20T04:21:26;101461.81;;;14.44;48.49
55656;BME280;41530;52.382;5.270;2022-11-20T04:23:54;101456.94;;;14.38;48.60
55656;BME280;41530;52.382;5.270;2022-11-20T04:26:24;101470.72;;;14.43;48.27
55656;BME280;41530;52.382;5.270;2022-11-20T04:28:51;101480.47;;;14.43;48.41
55656;BME280;41530;52.382;5.270;2022-11-20T04:31:22;101471.66;;;14.42;48.70
55656;BME280;41530;52.382;5.270;2022-11-20T04:33:50;101470.84;;;14.42;48.42
55656;BME280;41530;52.382;5.270;2022-11-20T04:36:20;101466.50;;;14.41;48.37
55656;BME280;41530;52.382;5.270;2022-11-20T04:38:50;101456.13;;;14.38;48.65
55656;BME280;41530;52.382;5.270;2022-11-20T04:41:24;101466.72;;;14.38;48.86
55656;BME280;41530;52.382;5.270;2022-11-20T04:43:53;101476.31;;;14.39;48.42
55656;BME280;41530;52.382;5.270;2022-11-20T04:46:26;101462.38;;;14.37;48.44
55656;BME280;41530;52.382;5.270;2022-11-20T04:48:53;101462.50;;;14.35;48.40
55656;BME280;41530;52.382;5.270;2022-11-20T04:51:20;101452.97;;;14.33;48.25
55656;BME280;41530;52.382;5.270;2022-11-20T04:53:47;101451.78;;;14.37;48.61
55656;BME280;41530;52.382;5.270;2022-11-20T04:56:14;101451.78;;;14.37;48.51
55656;BME280;41530;52.382;5.270;2022-11-20T04:58:42;101452.75;;;14.36;48.41
55656;BME280;41530;52.382;5.270;2022-11-20T05:01:21;101451.91;;;14.35;48.44
55656;BME280;41530;52.382;5.270;2022-11-20T05:03:49;101456.34;;;14.35;48.53
55656;BME280;41530;52.382;5.270;2022-11-20T05:06:18;101454.03;;;14.30;48.72
55656;BME280;41530;52.382;5.270;2022-11-20T05:08:46;101452.97;;;14.33;48.37
55656;BME280;41530;52.382;5.270;2022-11-20T05:11:17;101452.97;;;14.33;48.51
55656;BME280;41530;52.382;5.270;2022-11-20T05:13:44;101447.06;;;14.29;48.52
55656;BME280;41530;52.382;5.270;2022-11-20T05:16:23;101453.09;;;14.31;48.45
55656;BME280;41530;52.382;5.270;2022-11-20T05:18:53;101448.97;;;14.27;48.48
55656;BME280;41530;52.382;5.270;2022-11-20T05:21:21;101454.28;;;14.27;48.26
55656;BME280;41530;52.382;5.270;2022-11-20T05:23:49;101455.22;;;14.26;48.35
55656;BME280;41530;52.382;5.270;2022-11-20T05:26:19;101447.91;;;14.30;48.67
55656;BME280;41530;52.382;5.270;2022-11-20T05:28:47;101434.06;;;14.26;48.49
55656;BME280;41530;52.382;5.270;2022-11-20T05:31:22;101431.41;;;14.26;48.30
55656;BME280;41530;52.382;5.270;2022-11-20T05:33:54;101417.22;;;14.27;48.11
55656;BME280;41530;52.382;5.270;2022-11-20T05:36:23;101417.22;;;14.27;48.63
55656;BME280;41530;52.382;5.270;2022-11-20T05:38:50;101406.75;;;14.25;48.55
55656;BME280;41530;52.382;5.270;2022-11-20T05:41:25;101415.69;;;14.24;48.50
55656;BME280;41530;52.382;5.270;2022-11-20T05:43:52;101423.63;;;14.24;48.34
55656;BME280;41530;52.382;5.270;2022-11-20T05:46:20;101419.50;;;14.20;48.43
55656;BME280;41530;52.382;5.270;2022-11-20T05:48:54;101424.56;;;14.23;48.51
55656;BME280;41530;52.382;5.270;2022-11-20T05:51:21;101429.88;;;14.23;48.68
55656;BME280;41530;52.382;5.270;2022-11-20T05:53:48;101431.03;;;14.19;48.32
55656;BME280;41530;52.382;5.270;2022-11-20T05:56:17;101433.34;;;14.24;48.79
55656;BME280;41530;52.382;5.270;2022-11-20T05:58:45;101435.50;;;14.19;48.47
55656;BME280;41530;52.382;5.270;2022-11-20T06:01:18;101429.34;;;14.18;48.25
55656;BME280;41530;52.382;5.270;2022-11-20T06:03:46;101425.75;;;14.19;48.68
55656;BME280;41530;52.382;5.270;2022-11-20T06:06:15;101442.00;;;14.26;48.85
55656;BME280;41530;52.382;5.270;2022-11-20T06:08:43;101439.72;;;14.21;48.91
55656;BME280;41530;52.382;5.270;2022-11-20T06:11:11;101428.28;;;14.21;48.75
55656;BME280;41530;52.382;5.270;2022-11-20T06:13:39;101431.66;;;14.23;49.00
55656;BME280;41530;52.382;5.270;2022-11-20T06:16:08;101444.78;;;14.24;48.72
55656;BME280;41530;52.382;5.270;2022-11-20T06:18:34;101449.09;;;14.25;48.75
55656;BME280;41530;52.382;5.270;2022-11-20T06:21:15;101447.53;;;14.23;48.40
55656;BME280;41530;52.382;5.270;2022-11-20T06:23:42;101449.09;;;14.25;48.92
55656;BME280;41530;52.382;5.270;2022-11-20T06:26:13;101442.84;;;14.26;49.30
55656;BME280;41530;52.382;5.270;2022-11-20T06:28:41;101448.88;;;14.28;49.36
55656;BME280;41530;52.382;5.270;2022-11-20T06:31:10;101443.56;;;14.28;49.28
55656;BME280;41530;52.382;5.270;2022-11-20T06:33:37;101442.63;;;14.30;49.01
55656;BME280;41530;52.382;5.270;2022-11-20T06:36:04;101437.31;;;14.30;49.25
55656;BME280;41530;52.382;5.270;2022-11-20T06:38:36;101447.28;;;14.26;49.19
55656;BME280;41530;52.382;5.270;2022-11-20T06:41:04;101443.69;;;14.27;49.06
55656;BME280;41530;52.382;5.270;2022-11-20T06:43:31;101448.03;;;14.28;49.25
55656;BME280;41530;52.382;5.270;2022-11-20T06:45:58;101457.66;;;14.29;49.12
55656;BME280;41530;52.382;5.270;2022-11-20T06:48:26;101440.06;;;14.28;48.78
55656;BME280;41530;52.382;5.270;2022-11-20T06:50:53;101442.63;;;14.30;49.03
55656;BME280;41530;52.382;5.270;2022-11-20T06:53:20;101423.94;;;14.20;49.07
55656;BME280;41530;52.382;5.270;2022-11-20T06:55:48;101435.63;;;14.28;49.02
55656;BME280;41530;52.382;5.270;2022-11-20T06:58:16;101428.53;;;14.29;48.82
55656;BME280;41530;52.382;5.270;2022-11-20T07:00:43;101420.72;;;14.27;48.82
55656;BME280;41530;52.382;5.270;2022-11-20T07:03:11;101412.63;;;14.18;49.10
55656;BME280;41530;52.382;5.270;2022-11-20T07:05:38;101415.53;;;14.26;48.57
55656;BME280;41530;52.382;5.270;2022-11-20T07:08:06;101424.31;;;14.26;48.80
55656;BME280;41530;52.382;5.270;2022-11-20T07:10:33;101421.66;;;14.26;48.72
55656;BME280;41530;52.382;5.270;2022-11-20T07:12:59;101423.47;;;14.26;48.62
55656;BME280;41530;52.382;5.270;2022-11-20T07:15:26;101422.63;;;14.25;48.56
55656;BME280;41530;52.382;5.270;2022-11-20T07:17:53;101422.63;;;14.25;48.55
55656;BME280;41530;52.382;5.270;2022-11-20T07:20:20;101419.97;;;14.25;48.76
55656;BME280;41530;52.382;5.270;2022-11-20T07:22:53;101421.94;;;14.23;48.24
55656;BME280;41530;52.382;5.270;2022-11-20T07:25:20;101415.53;;;14.26;48.51
55656;BME280;41530;52.382;5.270;2022-11-20T07:27:47;101414.69;;;14.25;48.52
55656;BME280;41530;52.382;5.270;2022-11-20T07:30:17;101413.03;;;14.24;48.57
55656;BME280;41530;52.382;5.270;2022-11-20T07:32:50;101393.88;;;14.21;48.31
55656;BME280;41530;52.382;5.270;2022-11-20T07:35:18;101402.44;;;14.24;48.44
55656;BME280;41530;52.382;5.270;2022-11-20T07:37:45;101408.56;;;14.25;48.62
55656;BME280;41530;52.382;5.270;2022-11-20T07:40:12;101402.44;;;14.24;48.68
55656;BME280;41530;52.382;5.270;2022-11-20T07:42:50;101405.31;;;14.21;48.34
55656;BME280;41530;52.382;5.270;2022-11-20T07:45:18;101419.03;;;14.26;48.46
55656;BME280;41530;52.382;5.270;2022-11-20T07:47:45;101401.59;;;14.24;48.31
55656;BME280;41530;52.382;5.270;2022-11-20T07:50:12;101411.69;;;14.30;48.38
55656;BME280;41530;52.382;5.270;2022-11-20T07:52:39;101420.25;;;14.34;48.25
55656;BME280;41530;52.382;5.270;2022-11-20T07:55:07;101410.63;;;14.33;48.06
55656;BME280;41530;52.382;5.270;2022-11-20T07:57:34;101399.94;;;14.34;48.01
55656;BME280;41530;52.382;5.270;2022-11-20T08:00:04;101408.94;;;14.32;47.86
55656;BME280;41530;52.382;5.270;2022-11-20T08:02:31;101407.97;;;14.33;48.13
55656;BME280;41530;52.382;5.270;2022-11-20T08:04:58;101412.31;;;14.34;48.02
55656;BME280;41530;52.382;5.270;2022-11-20T08:07:25;101402.56;;;14.34;48.02
55656;BME280;41530;52.382;5.270;2022-11-20T08:09:52;101398.13;;;14.35;48.06
55656;BME280;41530;52.382;5.270;2022-11-20T08:12:20;101404.25;;;14.35;48.20
55656;BME280;41530;52.382;5.270;2022-11-20T08:15:06;101394.75;;;14.33;48.41
55656;BME280;41530;52.382;5.270;2022-11-20T08:17:38;101390.19;;;14.35;48.43
55656;BME280;41530;52.382;5.270;2022-11-20T08:20:05;101384.03;;;14.34;48.31
55656;BME280;41530;52.382;5.270;2022-11-20T08:22:32;101378.03;;;14.32;48.49
55656;BME280;41530;52.382;5.270;2022-11-20T08:24:58;101381.41;;;14.34;48.43
55656;BME280;41530;52.382;5.270;2022-11-20T08:27:25;101392.00;;;14.34;48.42
55656;BME280;41530;52.382;5.270;2022-11-20T08:29:52;101380.44;;;14.35;48.58
55656;BME280;41530;52.382;5.270;2022-11-20T08:32:19;101376.09;;;14.34;48.51
55656;BME280;41530;52.382;5.270;2022-11-20T08:34:46;101375.16;;;14.35;48.48
55656;BME280;41530;52.382;5.270;2022-11-20T08:37:12;101369.00;;;14.35;48.25
55656;BME280;41530;52.382;5.270;2022-11-20T08:39:39;101376.09;;;14.34;48.29
55656;BME280;41530;52.382;5.270;2022-11-20T08:42:08;101376.22;;;14.33;48.10
55656;BME280;41530;52.382;5.270;2022-11-20T08:44:35;101384.16;;;14.33;48.09
55656;BME280;41530;52.382;5.270;2022-11-20T08:47:01;101385.22;;;14.30;48.16
55656;BME280;41530;52.382;5.270;2022-11-20T08:49:28;101381.75;;;14.30;48.62
55656;BME280;41530;52.382;5.270;2022-11-20T08:51:56;101377.53;;;14.27;48.13
55656;BME280;41530;52.382;5.270;2022-11-20T08:54:23;101376.69;;;14.26;47.84
55656;BME280;41530;52.382;5.270;2022-11-20T08:56:49;101375.13;;;14.24;47.80
55656;BME280;41530;52.382;5.270;2022-11-20T08:59:16;101378.75;;;14.23;47.86
55656;BME280;41530;52.382;5.270;2022-11-20T09:02:03;101372.59;;;14.22;47.67
55656;BME280;41530;52.382;5.270;2022-11-20T09:04:29;101370.91;;;14.21;47.62
55656;BME280;41530;52.382;5.270;2022-11-20T09:06:56;101368.38;;;14.20;47.45
55656;BME280;41530;52.382;5.270;2022-11-20T09:09:23;101366.69;;;14.19;47.48
55656;BME280;41530;52.382;5.270;2022-11-20T09:11:50;101356.22;;;14.17;47.26
55656;BME280;41530;52.382;5.270;2022-11-20T09:14:16;101361.63;;;14.16;47.22
55656;BME280;41530;52.382;5.270;2022-11-20T09:16:45;101359.94;;;14.15;47.02
55656;BME280;41530;52.382;5.270;2022-11-20T09:19:11;101352.97;;;14.14;47.20
55656;BME280;41530;52.382;5.270;2022-11-20T09:21:58;101346.13;;;14.11;47.10
55656;BME280;41530;52.382;5.270;2022-11-20T09:24:26;101336.22;;;14.02;47.12
55656;BME280;41530;52.382;5.270;2022-11-20T09:26:54;101346.34;;;14.08;46.98
55656;BME280;41530;52.382;5.270;2022-11-20T09:29:20;101340.09;;;14.09;47.00
55656;BME280;41530;52.382;5.270;2022-11-20T09:31:48;101335.88;;;14.07;46.94
55656;BME280;41530;52.382;5.270;2022-11-20T09:34:15;101337.91;;;14.03;46.89
55656;BME280;41530;52.382;5.270;2022-11-20T09:36:41;101337.78;;;14.05;47.02
55656;BME280;41530;52.382;5.270;2022-11-20T09:39:08;101333.25;;;14.07;47.11
55656;BME280;41530;52.382;5.270;2022-11-20T09:41:56;101325.31;;;14.07;46.93
55656;BME280;41530;52.382;5.270;2022-11-20T09:47:11;101307.13;;;14.02;47.92
55656;BME280;41530;52.382;5.270;2022-11-20T09:55:12;101310.63;;;14.03;48.04
55656;BME280;41530;52.382;5.270;2022-11-20T09:57:42;101317.47;;;14.05;47.77
55656;BME280;41530;52.382;5.270;2022-11-20T10:00:13;101308.69;;;14.05;47.75
55656;BME280;41530;52.382;5.270;2022-11-20T10:02:45;101300.88;;;14.03;47.81
55656;BME280;41530;52.382;5.270;2022-11-20T10:05:19;101304.38;;;14.04;47.74
55656;BME280;41530;52.382;5.270;2022-11-20T10:07:52;101299.06;;;14.04;47.82
55656;BME280;41530;52.382;5.270;2022-11-20T10:10:33;101304.25;;;14.05;48.08
55656;BME280;41530;52.382;5.270;2022-11-20T10:21:24;101293.22;;;14.11;48.13
55656;BME280;41530;52.382;5.270;2022-11-20T10:24:22;101293.91;;;14.13;48.13
55656;BME280;41530;52.382;5.270;2022-11-20T10:27:30;101290.31;;;14.14;48.21
55656;BME280;41530;52.382;5.270;2022-11-20T10:30:00;101291.03;;;14.16;48.21
55656;BME280;41530;52.382;5.270;2022-11-20T10:32:39;101275.28;;;14.15;48.22
55656;BME280;41530;52.382;5.270;2022-11-20T10:35:20;101275.03;;;14.18;48.37
55656;BME280;41530;52.382;5.270;2022-11-20T10:37:54;101262.78;;;14.17;48.53
55656;BME280;41530;52.382;5.270;2022-11-20T10:40:40;101254.00;;;14.16;48.28
55656;BME280;41530;52.382;5.270;2022-11-20T10:43:14;101249.31;;;14.20;48.45
55656;BME280;41530;52.382;5.270;2022-11-20T10:45:53;101244.00;;;14.20;48.39
55656;BME280;41530;52.382;5.270;2022-11-20T10:48:25;101256.16;;;14.22;48.26
55656;BME280;41530;52.382;5.270;2022-11-20T10:53:54;101232.34;;;14.22;48.36
55656;BME280;41530;52.382;5.270;2022-11-20T10:56:39;101223.69;;;14.20;48.30
55656;BME280;41530;52.382;5.270;2022-11-20T10:59:38;101220.09;;;14.21;48.41
55656;BME280;41530;52.382;5.270;2022-11-20T11:02:24;101215.63;;;14.22;48.41
55656;BME280;41530;52.382;5.270;2022-11-20T11:04:52;101213.84;;;14.22;48.64
55656;BME280;41530;52.382;5.270;2022-11-20T11:07:39;101209.38;;;14.23;48.63
55656;BME280;41530;52.382;5.270;2022-11-20T11:10:14;101199.75;;;14.22;48.63
55656;BME280;41530;52.382;5.270;2022-11-20T11:12:46;101191.09;;;14.20;48.78
55656;BME280;41530;52.382;5.270;2022-11-20T11:15:25;101202.03;;;14.26;48.70
55656;BME280;41530;52.382;5.270;2022-11-20T11:17:53;101201.91;;;14.28;49.17
55656;BME280;41530;52.382;5.270;2022-11-20T11:20:22;101190.34;;;14.29;49.25
55656;BME280;41530;52.382;5.270;2022-11-20T11:22:57;101189.41;;;14.30;49.36
55656;BME280;41530;52.382;5.270;2022-11-20T11:27:55;101186.16;;;14.38;49.07
55656;BME280;41530;52.382;5.270;2022-11-20T11:30:23;101177.22;;;14.39;49.04
55656;BME280;41530;52.382;5.270;2022-11-20T11:32:51;101176.38;;;14.38;48.98
55656;BME280;41530;52.382;5.270;2022-11-20T11:35:28;101163.28;;;14.37;49.00
55656;BME280;41530;52.382;5.270;2022-11-20T11:38:06;101167.38;;;14.41;48.77
55656;BME280;41530;52.382;5.270;2022-11-20T11:40:35;101157.84;;;14.38;49.00
55656;BME280;41530;52.382;5.270;2022-11-20T11:43:17;101162.19;;;14.39;48.71
55656;BME280;41530;52.382;5.270;2022-11-20T11:46:13;101155.84;;;14.42;48.80
55656;BME280;41530;52.382;5.270;2022-11-20T11:52:04;101144.28;;;14.43;48.49
55656;BME280;41530;52.382;5.270;2022-11-20T11:54:38;101139.84;;;14.43;48.69
55656;BME280;41530;52.382;5.270;2022-11-20T11:57:20;101131.28;;;14.40;48.70
55656;BME280;41530;52.382;5.270;2022-11-20T12:05:24;101096.88;;;14.40;48.87
55656;BME280;41530;52.382;5.270;2022-11-20T12:08:15;101098.31;;;14.44;48.68
55656;BME280;41530;52.382;5.270;2022-11-20T12:10:50;101094.25;;;14.40;48.97
55656;BME280;41530;52.382;5.270;2022-11-20T12:15:59;101092.91;;;14.45;48.72
55656;BME280;41530;52.382;5.270;2022-11-20T12:18:27;101097.13;;;14.48;48.63
55656;BME280;41530;52.382;5.270;2022-11-20T12:34:27;101069.22;;;14.44;48.00
55656;BME280;41530;52.382;5.270;2022-11-20T12:37:26;101058.75;;;14.42;48.08
55656;BME280;41530;52.382;5.270;2022-11-20T12:40:39;101060.31;;;14.45;47.88
55656;BME280;41530;52.382;5.270;2022-11-20T12:43:40;101053.34;;;14.44;47.84
55656;BME280;41530;52.382;5.270;2022-11-20T12:46:37;101057.66;;;14.45;48.50
55656;BME280;41530;52.382;5.270;2022-11-20T12:51:52;101049.72;;;14.45;47.96
55656;BME280;41530;52.382;5.270;2022-11-20T12:54:40;101042.75;;;14.44;47.70
55656;BME280;41530;52.382;5.270;2022-11-20T13:00:11;101013.88;;;14.41;47.98
55656;BME280;41530;52.382;5.270;2022-11-20T13:05:43;101004.97;;;14.42;48.46
55656;BME280;41530;52.382;5.270;2022-11-20T13:10:52;100999.69;;;14.42;48.27
55656;BME280;41530;52.382;5.270;2022-11-20T13:18:27;100974.25;;;14.39;48.48
55656;BME280;41530;52.382;5.270;2022-11-20T13:20:54;100971.53;;;14.41;48.36
55656;BME280;41530;52.382;5.270;2022-11-20T13:23:26;100964.44;;;14.41;48.26
55656;BME280;41530;52.382;5.270;2022-11-20T13:26:16;100961.78;;;14.41;48.30
55656;BME280;41530;52.382;5.270;2022-11-20T13:28:46;100950.44;;;14.39;48.67
55656;BME280;41530;52.382;5.270;2022-11-20T13:31:33;100943.38;;;14.40;48.47
55656;BME280;41530;52.382;5.270;2022-11-20T13:34:03;100942.50;;;14.39;48.52
55656;BME280;41530;52.382;5.270;2022-11-20T13:36:31;100943.47;;;14.38;48.52
55656;BME280;41530;52.382;5.270;2022-11-20T13:38:59;100943.47;;;14.38;48.50
55656;BME280;41530;52.382;5.270;2022-11-20T13:41:31;100937.50;;;14.36;48.26
55656;BME280;41530;52.382;5.270;2022-11-20T13:44:22;100938.34;;;14.37;48.24
55656;BME280;41530;52.382;5.270;2022-11-20T13:46:50;100932.34;;;14.35;48.54
55656;BME280;41530;52.382;5.270;2022-11-20T13:49:40;100938.47;;;14.35;48.59
55656;BME280;41530;52.382;5.270;2022-11-20T13:55:18;100936.91;;;14.33;48.53
55656;BME280;41530;52.382;5.270;2022-11-20T14:00:56;100916.81;;;14.30;48.29
55656;BME280;41530;52.382;5.270;2022-11-20T14:03:25;100915.16;;;14.29;48.31
55656;BME280;41530;52.382;5.270;2022-11-20T14:06:21;100905.41;;;14.30;48.47
55656;BME280;41530;52.382;5.270;2022-11-20T14:08:52;100889.09;;;14.24;48.46
55656;BME280;41530;52.382;5.270;2022-11-20T14:11:21;100898.44;;;14.28;48.41
55656;BME280;41530;52.382;5.270;2022-11-20T14:14:10;100897.72;;;14.26;48.64
55656;BME280;41530;52.382;5.270;2022-11-20T14:16:39;100887.00;;;14.28;48.61
55656;BME280;41530;52.382;5.270;2022-11-20T14:21:50;100877.25;;;14.28;48.74
55656;BME280;41530;52.382;5.270;2022-11-20T14:24:22;100883.41;;;14.29;48.41
55656;BME280;41530;52.382;5.270;2022-11-20T14:26:51;100886.03;;;14.29;48.97
55656;BME280;41530;52.382;5.270;2022-11-20T14:29:26;100879.91;;;14.28;48.65